createdAt,value
2023-04-03T00:01:08.208Z,29.10
2023-04-03T00:03:35.878Z,29.20
2023-04-03T00:06:03.227Z,29.00
2023-04-03T00:08:32.219Z,29.00
2023-04-03T00:10:59.311Z,29.00
2023-04-03T00:13:26.705Z,28.60
2023-04-03T00:15:54.051Z,28.50
2023-04-03T00:18:22.740Z,28.50
2023-04-03T00:20:50.034Z,27.90
2023-04-03T00:23:17.351Z,27.70
2023-04-03T00:25:45.001Z,27.70
2023-04-03T00:28:12.439Z,28.10
2023-04-03T00:30:39.983Z,28.10
2023-04-03T00:33:07.324Z,28.60
2023-04-03T00:35:36.254Z,28.20
2023-04-03T00:38:03.469Z,27.90
2023-04-03T00:40:36.378Z,27.70
2023-04-03T00:43:06.774Z,27.50
2023-04-03T00:45:45.766Z,27.50
2023-04-03T00:48:18.256Z,27.50
2023-04-03T00:50:46.347Z,27.80
2023-04-03T00:53:18.279Z,27.60
2023-04-03T00:55:46.853Z,27.60
2023-04-03T00:58:15.059Z,27.70
2023-04-03T01:00:46.200Z,28.40
2023-04-03T01:03:13.393Z,28.50
2023-04-03T01:05:41.571Z,28.70
2023-04-03T01:08:08.720Z,29.10
2023-04-03T01:10:36.347Z,28.80
2023-04-03T01:13:36.351Z,28.80
2023-04-03T01:16:06.558Z,28.80
2023-04-03T01:18:34.555Z,28.10
2023-04-03T01:21:08.118Z,28.60
2023-04-03T01:23:47.980Z,28.60
2023-04-03T01:26:15.622Z,28.50
2023-04-03T01:28:42.625Z,28.60
2023-04-03T01:31:21.389Z,28.40
2023-04-03T01:33:48.705Z,29.00
2023-04-03T01:36:23.276Z,29.00
2023-04-03T01:38:51.091Z,28.70
2023-04-03T01:41:18.688Z,28.50
2023-04-03T01:43:45.964Z,29.10
2023-04-03T01:46:13.140Z,28.70
2023-04-03T01:48:40.422Z,28.40
2023-04-03T01:51:07.542Z,28.10
2023-04-03T01:53:34.571Z,28.20
2023-04-03T01:56:01.683Z,28.60
2023-04-03T01:58:28.694Z,29.00
2023-04-03T02:00:55.885Z,28.40
2023-04-03T02:03:23.163Z,28.60
2023-04-03T02:05:52.014Z,28.80
2023-04-03T02:08:19.142Z,29.00
2023-04-03T02:10:48.916Z,29.00
2023-04-03T02:13:16.530Z,29.20
2023-04-03T02:15:43.698Z,29.20
2023-04-03T02:18:11.169Z,28.90
2023-04-03T02:20:39.171Z,28.30
2023-04-03T02:23:08.308Z,27.90
2023-04-03T02:25:37.945Z,27.80
2023-04-03T02:28:06.128Z,27.80
2023-04-03T02:30:33.149Z,27.70
2023-04-03T02:33:00.585Z,27.70
2023-04-03T02:35:27.607Z,28.20
2023-04-03T02:37:54.567Z,28.70
2023-04-03T02:40:21.601Z,28.50
2023-04-03T02:42:48.595Z,28.30
2023-04-03T02:45:15.789Z,28.90
2023-04-03T02:47:43.038Z,29.00
2023-04-03T02:50:10.338Z,28.70
2023-04-03T02:52:38.425Z,28.70
2023-04-03T02:55:06.376Z,28.60
2023-04-03T02:57:33.749Z,28.80
2023-04-03T03:00:00.853Z,28.50
2023-04-03T03:02:28.065Z,28.60
2023-04-03T03:04:55.196Z,28.80
2023-04-03T03:07:22.171Z,28.90
2023-04-03T03:09:49.464Z,28.60
2023-04-03T03:12:16.854Z,28.50
2023-04-03T03:14:44.111Z,28.80
2023-04-03T03:17:11.200Z,28.70
2023-04-03T03:19:38.217Z,28.50
2023-04-03T03:22:05.712Z,28.60
2023-04-03T03:24:32.725Z,28.40
2023-04-03T03:26:59.746Z,28.30
2023-04-03T03:29:26.842Z,28.20
2023-04-03T03:31:53.952Z,28.00
2023-04-03T03:34:21.258Z,28.10
2023-04-03T03:36:48.263Z,28.40
2023-04-03T03:39:15.383Z,28.60
2023-04-03T03:41:42.339Z,28.60
2023-04-03T03:44:09.428Z,28.10
2023-04-03T03:46:36.448Z,28.90
2023-04-03T03:49:03.532Z,28.90
2023-04-03T03:51:30.554Z,29.20
2023-04-03T03:53:57.781Z,29.20
2023-04-03T03:56:24.800Z,29.40
2023-04-03T03:58:51.898Z,29.40
2023-04-03T04:01:19.273Z,29.30
2023-04-03T04:03:46.382Z,29.60
2023-04-03T04:06:13.522Z,29.40
2023-04-03T04:08:41.043Z,29.70
2023-04-03T04:11:08.579Z,29.70
2023-04-03T04:13:36.019Z,29.80
2023-04-03T04:16:03.153Z,29.90
2023-04-03T04:18:30.584Z,29.40
2023-04-03T04:20:57.944Z,29.20
2023-04-03T04:23:25.043Z,29.10
2023-04-03T04:25:52.175Z,29.20
2023-04-03T04:28:19.923Z,29.30
2023-04-03T04:30:47.172Z,29.00
2023-04-03T04:33:15.221Z,28.90
2023-04-03T04:35:44.718Z,29.20
2023-04-03T04:38:11.819Z,29.50
2023-04-03T04:40:38.921Z,29.80
2023-04-03T04:43:06.324Z,30.00
2023-04-03T04:45:33.407Z,30.00
2023-04-03T04:48:00.427Z,30.30
2023-04-03T04:50:27.752Z,30.50
2023-04-03T04:52:54.877Z,30.80
2023-04-03T04:55:21.907Z,31.00
2023-04-03T04:57:49.024Z,31.20
2023-04-03T05:00:16.846Z,31.20
2023-04-03T05:02:44.007Z,31.20
2023-04-03T05:05:11.249Z,31.30
2023-04-03T05:07:38.355Z,31.10
2023-04-03T05:10:05.971Z,31.10
2023-04-03T05:12:33.334Z,31.10
2023-04-03T05:15:00.407Z,30.70
2023-04-03T05:17:27.511Z,30.60
2023-04-03T05:19:54.551Z,30.50
2023-04-03T05:22:21.614Z,29.90
2023-04-03T05:24:48.749Z,30.30
2023-04-03T05:27:16.060Z,30.30
2023-04-03T05:29:45.284Z,30.60
2023-04-03T05:32:12.934Z,30.60
2023-04-03T05:34:40.238Z,30.90
2023-04-03T05:37:07.283Z,30.70
2023-04-03T05:39:34.756Z,30.80
2023-04-03T05:42:01.747Z,30.70
2023-04-03T05:44:28.722Z,30.90
2023-04-03T05:46:55.758Z,31.10
2023-04-03T05:49:23.067Z,31.20
2023-04-03T05:51:50.403Z,31.20
2023-04-03T05:54:24.423Z,31.20
2023-04-03T05:56:51.942Z,30.70
2023-04-03T05:59:19.801Z,30.50
2023-04-03T06:01:47.324Z,30.00
2023-04-03T06:04:15.114Z,29.40
2023-04-03T06:06:45.559Z,29.60
2023-04-03T06:09:12.872Z,29.30
2023-04-03T06:11:40.593Z,29.50
2023-04-03T06:14:07.819Z,29.30
2023-04-03T06:16:38.123Z,28.50
2023-04-03T06:19:10.830Z,28.80
2023-04-03T06:21:38.655Z,28.80
2023-04-03T06:24:07.087Z,28.90
2023-04-03T06:26:34.895Z,29.00
2023-04-03T06:29:02.832Z,28.10
2023-04-03T06:31:30.376Z,28.20
2023-04-03T06:33:57.810Z,28.50
2023-04-03T06:36:25.354Z,29.60
2023-04-03T06:38:52.711Z,29.60
2023-04-03T06:41:19.808Z,30.00
2023-04-03T06:43:46.840Z,29.50
2023-04-03T06:46:23.366Z,28.40
2023-04-03T06:48:51.991Z,29.10
2023-04-03T06:51:23.615Z,29.30
2023-04-03T06:53:52.518Z,28.90
2023-04-03T06:56:19.822Z,27.80
2023-04-03T06:58:47.405Z,27.20
2023-04-03T07:01:16.232Z,27.40
2023-04-03T07:03:43.669Z,28.30
2023-04-03T07:06:15.031Z,29.00
2023-04-03T07:08:43.411Z,29.20
2023-04-03T07:11:12.483Z,29.40
2023-04-03T07:13:40.138Z,29.40
2023-04-03T07:16:08.333Z,29.60
2023-04-03T07:18:35.950Z,29.60
2023-04-03T07:21:03.810Z,29.80
2023-04-03T07:23:31.111Z,29.40
2023-04-03T07:25:58.379Z,29.30
2023-04-03T07:28:25.869Z,29.10
2023-04-03T07:31:02.380Z,29.40
2023-04-03T07:33:29.662Z,29.80
2023-04-03T07:35:56.819Z,30.20
2023-04-03T07:38:23.988Z,29.90
2023-04-03T07:40:53.712Z,29.90
2023-04-03T07:43:22.419Z,30.30
2023-04-03T07:45:51.878Z,30.90
2023-04-03T07:48:23.908Z,30.60
2023-04-03T07:50:51.780Z,29.30
2023-04-03T07:53:19.127Z,29.10
2023-04-03T07:55:50.435Z,28.90
2023-04-03T07:58:19.131Z,29.60
2023-04-03T08:00:47.126Z,29.50
2023-04-03T08:03:17.876Z,29.80
2023-04-03T08:05:47.213Z,30.30
2023-04-03T08:08:17.429Z,30.50
2023-04-03T08:10:49.116Z,30.60
2023-04-03T08:13:16.376Z,30.40
2023-04-03T08:15:43.368Z,29.40
2023-04-03T08:18:10.636Z,28.50
2023-04-03T08:20:41.477Z,27.80
2023-04-03T08:23:09.089Z,27.20
2023-04-03T08:25:43.067Z,27.40
2023-04-03T08:28:13.209Z,26.70
2023-04-03T08:30:43.848Z,26.60
2023-04-03T08:33:12.200Z,26.50
2023-04-03T08:35:43.703Z,27.00
2023-04-03T08:38:11.812Z,27.40
2023-04-03T08:40:40.131Z,27.40
2023-04-03T08:43:26.161Z,24.80
2023-04-03T08:45:56.679Z,22.90
2023-04-03T08:48:30.820Z,21.90
2023-04-03T08:51:12.202Z,22.40
2023-04-03T08:53:42.780Z,25.10
2023-04-03T08:56:11.361Z,26.90
2023-04-03T08:58:52.944Z,28.70
2023-04-03T09:01:26.023Z,28.90
2023-04-03T09:03:53.357Z,30.00
2023-04-03T09:06:34.136Z,30.50
2023-04-03T09:09:42.579Z,31.60
2023-04-03T09:12:22.269Z,32.70
2023-04-03T09:14:58.312Z,31.80
2023-04-03T09:17:40.690Z,30.60
2023-04-03T09:20:40.315Z,30.70
2023-04-03T09:23:32.269Z,29.80
2023-04-03T09:26:15.648Z,28.50
2023-04-03T09:28:50.384Z,28.50
2023-04-03T09:31:26.167Z,27.40
2023-04-03T09:34:00.844Z,27.90
2023-04-03T09:36:52.788Z,27.30
2023-04-03T09:39:21.493Z,27.70
2023-04-03T09:42:18.498Z,27.40
2023-04-03T09:45:06.230Z,27.20
2023-04-03T09:47:36.289Z,27.80
2023-04-03T09:50:15.382Z,28.30
2023-04-03T09:52:44.092Z,28.70
2023-04-03T09:55:19.404Z,28.50
2023-04-03T09:57:47.644Z,28.40
2023-04-03T10:00:39.093Z,28.10
2023-04-03T10:03:24.531Z,27.70
2023-04-03T10:05:56.270Z,28.90
2023-04-03T10:08:27.341Z,29.90
2023-04-03T10:11:08.939Z,30.40
2023-04-03T10:13:45.127Z,29.80
2023-04-03T10:16:21.482Z,28.60
2023-04-03T10:18:59.796Z,27.90
2023-04-03T10:21:34.280Z,28.10
2023-04-03T10:24:27.941Z,28.40
2023-04-03T10:27:17.032Z,27.70
2023-04-03T10:29:58.783Z,27.10
2023-04-03T10:32:50.105Z,28.20
2023-04-03T10:35:27.248Z,28.30
2023-04-03T10:38:24.547Z,28.80
2023-04-03T10:41:11.867Z,28.80
2023-04-03T10:43:50.084Z,29.40
2023-04-03T10:46:30.576Z,29.70
2023-04-03T10:49:33.089Z,30.20
2023-04-03T10:52:41.361Z,30.90
2023-04-03T10:55:41.252Z,32.00
2023-04-03T10:58:22.239Z,32.00
2023-04-03T11:00:52.157Z,31.60
2023-04-03T11:03:32.562Z,30.00
2023-04-03T11:06:03.280Z,31.10
2023-04-03T11:08:37.153Z,31.90
2023-04-03T11:11:10.850Z,32.50
2023-04-03T11:13:38.551Z,32.30
2023-04-03T11:16:06.723Z,30.60
2023-04-03T11:18:51.445Z,31.20
2023-04-03T11:21:25.564Z,29.90
2023-04-03T11:23:54.868Z,30.20
2023-04-03T11:26:26.472Z,29.30
2023-04-03T11:29:01.943Z,29.00
2023-04-03T11:31:34.442Z,28.80
2023-04-03T11:34:01.668Z,28.50
2023-04-03T11:36:57.582Z,28.40
2023-04-03T11:39:34.832Z,28.10
2023-04-03T11:42:33.424Z,28.50
2023-04-03T11:45:36.063Z,29.20
2023-04-03T11:48:28.425Z,30.20
2023-04-03T11:50:57.412Z,30.70
2023-04-03T11:53:43.587Z,31.30
2023-04-03T11:56:27.009Z,30.80
2023-04-03T11:59:12.686Z,31.40
2023-04-03T12:01:56.881Z,31.50
2023-04-03T12:04:26.641Z,32.60
2023-04-03T12:07:13.744Z,33.30
2023-04-03T12:09:43.836Z,33.30
2023-04-03T12:12:58.166Z,31.80
2023-04-03T12:15:39.004Z,31.10
2023-04-03T12:18:43.742Z,30.80
2023-04-03T12:21:13.522Z,30.20
2023-04-03T12:24:08.365Z,31.90
2023-04-03T12:27:00.614Z,31.70
2023-04-03T12:29:34.143Z,32.00
2023-04-03T12:32:33.629Z,32.00
2023-04-03T12:35:15.142Z,31.60
2023-04-03T12:38:15.635Z,32.00
2023-04-03T12:41:15.646Z,32.00
2023-04-03T12:44:16.945Z,32.40
2023-04-03T12:46:47.675Z,33.40
2023-04-03T12:49:37.378Z,33.90
2023-04-03T12:52:14.647Z,33.10
2023-04-03T12:54:42.542Z,33.30
2023-04-03T12:57:21.699Z,33.50
2023-04-03T12:59:49.183Z,33.40
2023-04-03T13:02:35.266Z,32.60
2023-04-03T13:05:15.974Z,32.30
2023-04-03T13:07:44.636Z,31.80
2023-04-03T13:10:11.662Z,32.50
2023-04-03T13:12:47.837Z,31.00
2023-04-03T13:15:24.196Z,30.50
2023-04-03T13:17:54.196Z,30.70
2023-04-03T13:20:35.080Z,30.80
2023-04-03T13:23:12.327Z,30.70
2023-04-03T13:25:43.881Z,29.40
2023-04-03T13:28:18.466Z,29.80
2023-04-03T13:31:06.587Z,30.50
2023-04-03T13:33:38.993Z,30.30
2023-04-03T13:36:18.141Z,31.30
2023-04-03T13:38:45.388Z,30.60
2023-04-03T13:41:39.360Z,30.40
2023-04-03T13:44:24.446Z,30.50
2023-04-03T13:46:56.992Z,29.50
2023-04-03T13:49:38.400Z,29.80
2023-04-03T13:52:32.268Z,29.50
2023-04-03T13:55:02.919Z,29.10
2023-04-03T13:57:30.409Z,28.40
2023-04-03T13:59:57.573Z,28.80
2023-04-03T14:02:35.557Z,29.40
2023-04-03T14:05:04.637Z,29.90
2023-04-03T14:07:32.539Z,29.80
2023-04-03T14:09:59.752Z,28.90
2023-04-03T14:12:40.152Z,29.30
2023-04-03T14:15:23.153Z,28.60
2023-04-03T14:17:52.591Z,28.40
2023-04-03T14:20:23.155Z,27.30
2023-04-03T14:22:50.729Z,28.50
2023-04-03T14:25:19.454Z,29.10
2023-04-03T14:27:49.960Z,29.80
2023-04-03T14:30:29.668Z,29.00
2023-04-03T14:32:57.295Z,29.30
2023-04-03T14:35:25.620Z,29.90
2023-04-03T14:37:54.047Z,29.80
2023-04-03T14:40:25.606Z,30.10
2023-04-03T14:42:56.005Z,30.30
2023-04-03T14:45:24.505Z,31.40
2023-04-03T14:47:55.052Z,31.00
2023-04-03T14:50:24.928Z,30.90
2023-04-03T14:52:55.312Z,32.30
2023-04-03T14:55:24.307Z,33.20
2023-04-03T14:57:51.869Z,33.20
2023-04-03T15:00:21.766Z,32.60
2023-04-03T15:02:50.888Z,32.30
2023-04-03T15:05:21.152Z,32.00
2023-04-03T15:07:57.456Z,31.30
2023-04-03T15:10:29.898Z,30.30
2023-04-03T15:12:57.411Z,29.90
2023-04-03T15:15:25.900Z,29.30
2023-04-03T15:17:56.128Z,29.00
2023-04-03T15:20:26.458Z,28.80
2023-04-03T15:22:54.111Z,28.20
2023-04-03T15:25:21.310Z,28.00
2023-04-03T15:27:48.462Z,27.40
2023-04-03T15:30:18.425Z,26.80
2023-04-03T15:32:45.644Z,28.10
2023-04-03T15:35:12.768Z,27.20
2023-04-03T15:37:39.832Z,26.90
2023-04-03T15:40:09.583Z,27.70
2023-04-03T15:42:36.677Z,27.50
2023-04-03T15:45:03.886Z,28.10
2023-04-03T15:47:31.020Z,28.40
2023-04-03T15:49:58.435Z,29.20
2023-04-03T15:52:25.650Z,29.60
2023-04-03T15:54:52.590Z,29.00
2023-04-03T15:57:19.703Z,29.80
2023-04-03T15:59:46.786Z,29.50
2023-04-03T16:02:14.541Z,29.20
2023-04-03T16:04:42.267Z,29.10
2023-04-03T16:07:09.396Z,29.20
2023-04-03T16:09:37.160Z,29.40
2023-04-03T16:12:04.930Z,29.30
2023-04-03T16:14:31.939Z,28.30
2023-04-03T16:17:03.330Z,27.70
2023-04-03T16:19:31.289Z,28.20
2023-04-03T16:21:58.608Z,28.80
2023-04-03T16:24:25.698Z,28.80
2023-04-03T16:26:54.755Z,28.70
2023-04-03T16:29:22.021Z,28.80
2023-04-03T16:31:49.660Z,28.10
2023-04-03T16:34:17.204Z,27.80
2023-04-03T16:36:44.321Z,27.40
2023-04-03T16:39:11.519Z,27.40
2023-04-03T16:41:39.022Z,27.40
2023-04-03T16:44:08.242Z,27.10
2023-04-03T16:46:35.492Z,27.80
2023-04-03T16:49:02.729Z,27.70
2023-04-03T16:51:30.003Z,26.80
2023-04-03T16:53:57.196Z,26.90
2023-04-03T16:56:24.374Z,27.40
2023-04-03T16:58:51.413Z,27.90
2023-04-03T17:01:20.397Z,28.20
2023-04-03T17:03:47.993Z,28.20
2023-04-03T17:06:19.068Z,28.20
2023-04-03T17:08:49.783Z,27.80
2023-04-03T17:11:18.136Z,27.40
2023-04-03T17:13:45.165Z,27.40
2023-04-03T17:16:17.064Z,27.80
2023-04-03T17:18:46.107Z,28.10
2023-04-03T17:21:14.129Z,28.20
2023-04-03T17:23:43.970Z,28.30
2023-04-03T17:26:11.204Z,28.00
2023-04-03T17:28:39.577Z,28.30
2023-04-03T17:31:06.955Z,28.40
2023-04-03T17:33:34.916Z,28.60
2023-04-03T17:36:04.565Z,28.70
2023-04-03T17:38:33.527Z,28.80
2023-04-03T17:41:03.437Z,28.80
2023-04-03T17:43:30.806Z,29.20
2023-04-03T17:46:06.370Z,29.10
2023-04-03T17:48:35.081Z,29.20
2023-04-03T17:51:17.042Z,28.90
2023-04-03T17:53:44.718Z,29.30
2023-04-03T17:56:27.372Z,29.20
2023-04-03T17:58:56.726Z,29.50
2023-04-03T18:01:29.741Z,29.60
2023-04-03T18:03:59.499Z,29.50
2023-04-03T18:06:30.891Z,29.40
2023-04-03T18:09:08.765Z,29.40
2023-04-03T18:11:37.813Z,29.40
2023-04-03T18:14:09.267Z,29.60
2023-04-03T18:16:36.509Z,29.70
2023-04-03T18:21:36.672Z,30.00
2023-04-03T18:24:07.678Z,30.30
2023-04-03T18:26:34.735Z,30.60
2023-04-03T18:29:04.659Z,30.70
2023-04-03T18:31:35.191Z,30.90
2023-04-03T18:34:02.370Z,30.90
2023-04-03T18:36:29.875Z,31.00
2023-04-03T18:38:57.072Z,31.00
2023-04-03T18:41:28.661Z,30.90
2023-04-03T18:43:57.859Z,30.90
2023-04-03T18:46:25.214Z,30.60
2023-04-03T18:48:54.273Z,30.60
2023-04-03T18:51:21.467Z,30.60
2023-04-03T18:53:48.564Z,30.70
2023-04-03T18:56:16.388Z,30.70
2023-04-03T18:58:43.605Z,30.70
2023-04-03T19:01:10.998Z,30.80
2023-04-03T19:03:38.482Z,30.70
2023-04-03T19:06:10.249Z,30.80
2023-04-03T19:08:38.863Z,31.00
2023-04-03T19:11:05.931Z,31.00
2023-04-03T19:13:34.326Z,31.00
2023-04-03T19:16:02.508Z,31.00
2023-04-03T19:18:30.416Z,31.00
2023-04-03T19:20:59.243Z,30.90
2023-04-03T19:23:26.766Z,30.70
2023-04-03T19:26:01.176Z,30.90
2023-04-03T19:28:28.387Z,30.70
2023-04-03T19:30:56.434Z,30.80
2023-04-03T19:33:23.629Z,30.60
2023-04-03T19:35:51.023Z,30.70
2023-04-03T19:38:18.132Z,30.90
2023-04-03T19:40:45.878Z,30.90
2023-04-03T19:43:16.928Z,31.00
2023-04-03T19:45:46.117Z,31.00
2023-04-03T19:48:13.873Z,31.00
2023-04-03T19:50:41.161Z,31.10
2023-04-03T19:53:14.619Z,31.10
2023-04-03T19:55:41.742Z,30.90
2023-04-03T19:58:08.899Z,30.70
2023-04-03T20:00:36.410Z,30.70
2023-04-03T20:03:03.528Z,30.70
2023-04-03T20:05:31.004Z,30.70
2023-04-03T20:07:58.208Z,30.80
2023-04-03T20:10:25.872Z,30.70
2023-04-03T20:12:52.955Z,30.90
2023-04-03T20:15:20.182Z,30.90
2023-04-03T20:17:47.597Z,30.90
2023-04-03T20:20:16.705Z,30.90
2023-04-03T20:22:43.889Z,30.80
2023-04-03T20:25:15.318Z,30.90
2023-04-03T20:27:44.498Z,30.90
2023-04-03T20:30:14.345Z,30.90
2023-04-03T20:32:41.735Z,30.90
2023-04-03T20:35:09.146Z,30.80
2023-04-03T20:37:36.919Z,30.80
2023-04-03T20:40:05.292Z,30.70
2023-04-03T20:42:32.559Z,30.70
2023-04-03T20:44:59.615Z,30.70
2023-04-03T20:47:27.924Z,30.60
2023-04-03T20:49:55.723Z,30.50
2023-04-03T20:52:22.920Z,30.20
2023-04-03T20:54:50.813Z,30.30
2023-04-03T20:57:17.959Z,30.60
2023-04-03T20:59:45.206Z,30.60
2023-04-03T21:02:12.798Z,30.60
2023-04-03T21:04:51.626Z,30.60
2023-04-03T21:07:56.780Z,30.50
2023-04-03T21:11:01.438Z,30.40
2023-04-03T21:14:05.699Z,30.50
2023-04-03T21:16:32.942Z,30.60
2023-04-03T21:19:09.325Z,30.50
2023-04-03T21:21:37.076Z,30.60
2023-04-03T21:24:06.840Z,30.70
2023-04-03T21:26:34.933Z,30.80
2023-04-03T21:29:02.320Z,30.80
2023-04-03T21:31:59.235Z,30.50
2023-04-03T21:34:28.856Z,30.60
2023-04-03T21:37:04.616Z,30.60
2023-04-03T21:39:33.051Z,30.60
2023-04-03T21:42:00.461Z,30.50
2023-04-03T21:44:28.570Z,30.70
2023-04-03T21:46:55.943Z,30.60
2023-04-03T21:49:24.294Z,30.60
2023-04-03T21:51:52.520Z,30.60
2023-04-03T21:54:20.586Z,30.70
2023-04-03T21:56:52.544Z,30.70
2023-04-03T21:59:19.732Z,30.70
2023-04-03T22:01:46.931Z,30.70
2023-04-03T22:04:14.263Z,30.70
2023-04-03T22:06:42.018Z,30.70
2023-04-03T22:09:09.214Z,30.50
2023-04-03T22:11:38.322Z,30.60
2023-04-03T22:14:05.760Z,30.70
2023-04-03T22:16:32.874Z,30.80
2023-04-03T22:18:59.968Z,30.80
2023-04-03T22:21:27.406Z,30.80
2023-04-03T22:23:54.957Z,30.70
2023-04-03T22:26:22.307Z,30.70
2023-04-03T22:28:49.546Z,30.50
2023-04-03T22:31:17.318Z,30.40
2023-04-03T22:33:46.124Z,30.40
2023-04-03T22:36:14.495Z,30.40
2023-04-03T22:38:45.814Z,30.20
2023-04-03T22:41:13.111Z,30.20
2023-04-03T22:43:40.457Z,30.40
2023-04-03T22:46:09.426Z,30.30
2023-04-03T22:48:37.720Z,30.40
2023-04-03T22:51:08.682Z,30.20
2023-04-03T22:53:36.766Z,30.40
2023-04-03T22:56:08.775Z,30.40
2023-04-03T22:58:35.883Z,30.40
2023-04-03T23:01:07.875Z,30.50
2023-04-03T23:03:36.726Z,30.40
2023-04-03T23:06:04.671Z,30.20
2023-04-03T23:08:33.510Z,30.40
2023-04-03T23:11:01.692Z,30.30
2023-04-03T23:13:29.003Z,30.40
2023-04-03T23:15:57.812Z,30.40
2023-04-03T23:18:26.167Z,30.50
2023-04-03T23:20:55.199Z,30.50
2023-04-03T23:23:23.854Z,30.60
2023-04-03T23:25:55.308Z,30.50
2023-04-03T23:28:23.064Z,30.40
2023-04-03T23:30:51.192Z,30.40
2023-04-03T23:33:20.859Z,30.60
2023-04-03T23:35:49.483Z,30.60
2023-04-03T23:38:16.556Z,30.50
2023-04-03T23:40:44.703Z,30.50
2023-04-03T23:43:12.154Z,30.40
2023-04-03T23:45:40.130Z,30.50
2023-04-03T23:48:07.837Z,30.60
2023-04-03T23:50:34.906Z,30.60
2023-04-03T23:53:01.978Z,30.50
2023-04-03T23:55:29.036Z,30.60
2023-04-03T23:57:56.565Z,30.60
